sensor_id;sensor_type;location;lat;lon;timestamp;pressure;altitude;pressure_sealevel;temperature;humidity
6136;BME280;24008;42.664;23.372;2023-05-01T00:01:56;94660.78;;;10.51;87.48
6136;BME280;24008;42.664;23.372;2023-05-01T00:04:23;94666.41;;;10.54;87.46
6136;BME280;24008;42.664;23.372;2023-05-01T00:06:50;94611.97;;;10.17;87.71
6136;BME280;24008;42.664;23.372;2023-05-01T00:09:17;94697.84;;;10.64;87.69
6136;BME280;24008;42.664;23.372;2023-05-01T00:11:44;94660.47;;;10.36;87.25
6136;BME280;24008;42.664;23.372;2023-05-01T00:14:11;94727.09;;;10.79;86.78
6136;BME280;24008;42.664;23.372;2023-05-01T00:16:38;94618.50;;;10.01;87.60
6136;BME280;24008;42.664;23.372;2023-05-01T00:19:06;94722.25;;;10.76;87.06
6136;BME280;24008;42.664;23.372;2023-05-01T00:21:32;94690.00;;;10.48;87.57
6136;BME280;24008;42.664;23.372;2023-05-01T00:23:59;94617.16;;;9.97;88.55
6136;BME280;24008;42.664;23.372;2023-05-01T00:26:26;94686.22;;;10.42;88.02
6136;BME280;24008;42.664;23.372;2023-05-01T00:28:55;94722.63;;;10.54;88.61
6136;BME280;24008;42.664;23.372;2023-05-01T00:31:23;94723.22;;;10.48;87.52
6136;BME280;24008;42.664;23.372;2023-05-01T00:33:50;94723.47;;;10.45;86.97
6136;BME280;24008;42.664;23.372;2023-05-01T00:36:18;94734.78;;;10.42;87.25
6136;BME280;24008;42.664;23.372;2023-05-01T00:38:45;94679.78;;;10.01;87.15
6136;BME280;24008;42.664;23.372;2023-05-01T00:41:12;94652.94;;;9.78;87.34
6136;BME280;24008;42.664;23.372;2023-05-01T00:43:38;94616.97;;;9.62;86.49
6136;BME280;24008;42.664;23.372;2023-05-01T00:46:06;94665.53;;;9.99;87.14
6136;BME280;24008;42.664;23.372;2023-05-01T00:48:34;94732.25;;;10.33;87.45
6136;BME280;24008;42.664;23.372;2023-05-01T00:51:04;94738.59;;;10.29;87.83
6136;BME280;24008;42.664;23.372;2023-05-01T00:53:47;94723.28;;;10.09;87.79
6136;BME280;24008;42.664;23.372;2023-05-01T00:56:14;94739.66;;;10.17;87.63
6136;BME280;24008;42.664;23.372;2023-05-01T00:58:43;94738.97;;;10.15;88.13
6136;BME280;24008;42.664;23.372;2023-05-01T01:01:11;94542.44;;;8.83;87.97
6136;BME280;24008;42.664;23.372;2023-05-01T01:03:38;94706.53;;;9.88;87.88
6136;BME280;24008;42.664;23.372;2023-05-01T01:06:08;94712.44;;;9.88;88.75
6136;BME280;24008;42.664;23.372;2023-05-01T01:08:39;94743.97;;;10.06;88.41
6136;BME280;24008;42.664;23.372;2023-05-01T01:11:15;94669.09;;;9.50;88.96
6136;BME280;24008;42.664;23.372;2023-05-01T01:13:51;94751.91;;;10.03;89.04
6136;BME280;24008;42.664;23.372;2023-05-01T01:16:28;94623.19;;;9.21;89.47
6136;BME280;24008;42.664;23.372;2023-05-01T01:19:02;94755.69;;;9.99;89.70
6136;BME280;24008;42.664;23.372;2023-05-01T01:21:35;94731.13;;;9.79;89.99
6136;BME280;24008;42.664;23.372;2023-05-01T01:24:25;94694.88;;;9.66;92.63
6136;BME280;24008;42.664;23.372;2023-05-01T01:27:25;94758.94;;;10.01;95.45
6136;BME280;24008;42.664;23.372;2023-05-01T01:33:34;94730.31;;;9.69;98.40
6136;BME280;24008;42.664;23.372;2023-05-01T01:36:07;94764.28;;;9.79;99.30
6136;BME280;24008;42.664;23.372;2023-05-01T01:38:41;94671.53;;;9.13;100.00
6136;BME280;24008;42.664;23.372;2023-05-01T01:41:11;94738.94;;;9.49;100.00
6136;BME280;24008;42.664;23.372;2023-05-01T01:43:43;94766.84;;;9.60;100.00
6136;BME280;24008;42.664;23.372;2023-05-01T01:46:11;94735.16;;;9.33;100.00
6136;BME280;24008;42.664;23.372;2023-05-01T01:48:45;94705.88;;;9.18;100.00
6136;BME280;24008;42.664;23.372;2023-05-01T01:51:17;94759.19;;;9.50;100.00
6136;BME280;24008;42.664;23.372;2023-05-01T01:53:47;94727.09;;;9.28;100.00
6136;BME280;24008;42.664;23.372;2023-05-01T01:56:17;94754.22;;;9.39;100.00
6136;BME280;24008;42.664;23.372;2023-05-01T01:58:46;94762.53;;;9.31;100.00
6136;BME280;24008;42.664;23.372;2023-05-01T02:01:14;94712.69;;;8.98;100.00
6136;BME280;24008;42.664;23.372;2023-05-01T02:03:44;94751.13;;;9.16;100.00
6136;BME280;24008;42.664;23.372;2023-05-01T02:06:12;94693.88;;;8.80;100.00
6136;BME280;24008;42.664;23.372;2023-05-01T02:08:40;94758.47;;;9.10;100.00
6136;BME280;24008;42.664;23.372;2023-05-01T02:11:08;94723.81;;;8.88;100.00
6136;BME280;24008;42.664;23.372;2023-05-01T02:13:37;94752.81;;;9.06;100.00
6136;BME280;24008;42.664;23.372;2023-05-01T02:16:05;94763.00;;;9.06;100.00
6136;BME280;24008;42.664;23.372;2023-05-01T02:18:33;94691.28;;;8.61;100.00
6136;BME280;24008;42.664;23.372;2023-05-01T02:21:03;94757.50;;;9.01;100.00
6136;BME280;24008;42.664;23.372;2023-05-01T02:23:30;94757.38;;;8.93;100.00
6136;BME280;24008;42.664;23.372;2023-05-01T02:25:59;94767.00;;;8.89;100.00
6136;BME280;24008;42.664;23.372;2023-05-01T02:28:29;94749.03;;;8.91;100.00
6136;BME280;24008;42.664;23.372;2023-05-01T02:30:55;94752.78;;;8.87;100.00
6136;BME280;24008;42.664;23.372;2023-05-01T02:33:22;94702.63;;;8.47;100.00
6136;BME280;24008;42.664;23.372;2023-05-01T02:35:50;94688.44;;;8.24;100.00
6136;BME280;24008;42.664;23.372;2023-05-01T02:38:18;94702.09;;;8.44;100.00
6136;BME280;24008;42.664;23.372;2023-05-01T02:40:48;94749.75;;;8.62;100.00
6136;BME280;24008;42.664;23.372;2023-05-01T02:43:19;94750.28;;;8.56;100.00
6136;BME280;24008;42.664;23.372;2023-05-01T02:45:46;94753.31;;;8.50;100.00
6136;BME280;24008;42.664;23.372;2023-05-01T02:48:17;94752.63;;;8.48;100.00
6136;BME280;24008;42.664;23.372;2023-05-01T02:50:46;94658.44;;;7.76;100.00
6136;BME280;24008;42.664;23.372;2023-05-01T02:53:14;94732.91;;;8.20;100.00
6136;BME280;24008;42.664;23.372;2023-05-01T02:55:43;94739.34;;;8.24;100.00
6136;BME280;24008;42.664;23.372;2023-05-01T02:58:14;94754.56;;;8.35;100.00
6136;BME280;24008;42.664;23.372;2023-05-01T03:00:41;94760.47;;;8.15;100.00
6136;BME280;24008;42.664;23.372;2023-05-01T03:03:09;94741.97;;;8.13;100.00
6136;BME280;24008;42.664;23.372;2023-05-01T03:05:36;94768.03;;;8.26;100.00
6136;BME280;24008;42.664;23.372;2023-05-01T03:08:04;94777.16;;;8.28;100.00
6136;BME280;24008;42.664;23.372;2023-05-01T03:10:31;94771.88;;;8.32;100.00
6136;BME280;24008;42.664;23.372;2023-05-01T03:12:59;94744.38;;;8.14;100.00
6136;BME280;24008;42.664;23.372;2023-05-01T03:15:26;94766.19;;;8.28;100.00
6136;BME280;24008;42.664;23.372;2023-05-01T03:17:53;94739.72;;;7.99;100.00
6136;BME280;24008;42.664;23.372;2023-05-01T03:20:19;94764.47;;;8.08;100.00
6136;BME280;24008;42.664;23.372;2023-05-01T03:22:46;94775.50;;;8.18;100.00
6136;BME280;24008;42.664;23.372;2023-05-01T03:25:13;94772.28;;;8.16;100.00
6136;BME280;24008;42.664;23.372;2023-05-01T03:27:40;94663.03;;;7.41;100.00
6136;BME280;24008;42.664;23.372;2023-05-01T03:30:09;94782.69;;;8.13;100.00
6136;BME280;24008;42.664;23.372;2023-05-01T03:32:36;94793.56;;;8.15;100.00
6136;BME280;24008;42.664;23.372;2023-05-01T03:35:03;94762.22;;;7.93;100.00
6136;BME280;24008;42.664;23.372;2023-05-01T03:37:30;94790.09;;;8.16;100.00
6136;BME280;24008;42.664;23.372;2023-05-01T03:39:58;94790.91;;;8.16;100.00
6136;BME280;24008;42.664;23.372;2023-05-01T03:42:25;94719.09;;;7.71;100.00
6136;BME280;24008;42.664;23.372;2023-05-01T03:44:52;94793.22;;;8.19;100.00
6136;BME280;24008;42.664;23.372;2023-05-01T03:47:20;94789.84;;;8.19;100.00
6136;BME280;24008;42.664;23.372;2023-05-01T03:49:46;94795.34;;;8.24;100.00
6136;BME280;24008;42.664;23.372;2023-05-01T03:52:13;94801.94;;;8.26;100.00
6136;BME280;24008;42.664;23.372;2023-05-01T03:54:40;94779.22;;;8.14;100.00
6136;BME280;24008;42.664;23.372;2023-05-01T03:57:08;94803.44;;;8.29;100.00
6136;BME280;24008;42.664;23.372;2023-05-01T03:59:35;94775.88;;;8.13;100.00
6136;BME280;24008;42.664;23.372;2023-05-01T04:02:02;94777.59;;;8.13;100.00
6136;BME280;24008;42.664;23.372;2023-05-01T04:04:30;94722.06;;;7.76;100.00
6136;BME280;24008;42.664;23.372;2023-05-01T04:06:57;94813.94;;;8.36;100.00
6136;BME280;24008;42.664;23.372;2023-05-01T04:09:24;94782.09;;;8.20;100.00
6136;BME280;24008;42.664;23.372;2023-05-01T04:11:51;94653.13;;;7.38;100.00
6136;BME280;24008;42.664;23.372;2023-05-01T04:14:18;94815.63;;;8.46;100.00
6136;BME280;24008;42.664;23.372;2023-05-01T04:16:44;94813.75;;;8.48;100.00
6136;BME280;24008;42.664;23.372;2023-05-01T04:19:11;94808.97;;;8.55;100.00
6136;BME280;24008;42.664;23.372;2023-05-01T04:21:39;94809.53;;;8.58;100.00
6136;BME280;24008;42.664;23.372;2023-05-01T04:24:06;94740.97;;;8.25;100.00
6136;BME280;24008;42.664;23.372;2023-05-01T04:26:33;94669.75;;;7.83;100.00
6136;BME280;24008;42.664;23.372;2023-05-01T04:29:00;94811.25;;;8.79;100.00
6136;BME280;24008;42.664;23.372;2023-05-01T04:31:27;94811.84;;;8.92;100.00
6136;BME280;24008;42.664;23.372;2023-05-01T04:33:53;94814.28;;;9.03;100.00
6136;BME280;24008;42.664;23.372;2023-05-01T04:36:20;94710.00;;;8.50;100.00
6136;BME280;24008;42.664;23.372;2023-05-01T04:38:49;94815.44;;;9.29;100.00
6136;BME280;24008;42.664;23.372;2023-05-01T04:41:15;94817.56;;;9.34;98.52
6136;BME280;24008;42.664;23.372;2023-05-01T04:43:42;94767.38;;;9.25;98.29
6136;BME280;24008;42.664;23.372;2023-05-01T04:46:09;94696.31;;;9.97;97.72
6136;BME280;24008;42.664;23.372;2023-05-01T04:48:36;94699.09;;;11.23;90.80
6136;BME280;24008;42.664;23.372;2023-05-01T04:51:02;94823.72;;;13.24;82.53
6136;BME280;24008;42.664;23.372;2023-05-01T04:53:29;94800.31;;;14.10;75.72
6136;BME280;24008;42.664;23.372;2023-05-01T04:55:57;94773.09;;;14.64;71.13
6136;BME280;24008;42.664;23.372;2023-05-01T04:58:24;94834.97;;;15.81;66.45
6136;BME280;24008;42.664;23.372;2023-05-01T05:00:51;94774.41;;;16.23;63.17
6136;BME280;24008;42.664;23.372;2023-05-01T05:03:17;94835.41;;;17.06;59.61
6136;BME280;24008;42.664;23.372;2023-05-01T05:05:44;94723.69;;;16.97;57.89
6136;BME280;24008;42.664;23.372;2023-05-01T05:08:11;94811.66;;;17.76;56.07
6136;BME280;24008;42.664;23.372;2023-05-01T05:10:38;94840.78;;;18.20;54.97
6136;BME280;24008;42.664;23.372;2023-05-01T05:13:06;94844.09;;;18.35;53.99
6136;BME280;24008;42.664;23.372;2023-05-01T05:15:34;94855.34;;;18.49;54.41
6136;BME280;24008;42.664;23.372;2023-05-01T05:18:04;94853.63;;;18.56;54.03
6136;BME280;24008;42.664;23.372;2023-05-01T05:20:31;94851.63;;;18.09;54.04
6136;BME280;24008;42.664;23.372;2023-05-01T05:22:57;94798.81;;;18.04;52.43
6136;BME280;24008;42.664;23.372;2023-05-01T05:25:24;94806.81;;;18.30;52.50
6136;BME280;24008;42.664;23.372;2023-05-01T05:27:51;94780.06;;;18.44;52.40
6136;BME280;24008;42.664;23.372;2023-05-01T05:30:20;94862.84;;;19.42;51.01
6136;BME280;24008;42.664;23.372;2023-05-01T05:32:46;94860.34;;;19.56;50.96
6136;BME280;24008;42.664;23.372;2023-05-01T05:35:13;94872.06;;;19.17;50.65
6136;BME280;24008;42.664;23.372;2023-05-01T05:37:40;94860.44;;;19.48;51.28
6136;BME280;24008;42.664;23.372;2023-05-01T05:40:08;94836.59;;;19.59;49.03
6136;BME280;24008;42.664;23.372;2023-05-01T05:42:35;94870.41;;;19.85;50.28
6136;BME280;24008;42.664;23.372;2023-05-01T05:45:02;94788.16;;;19.25;49.65
6136;BME280;24008;42.664;23.372;2023-05-01T05:47:30;94871.44;;;19.91;48.58
6136;BME280;24008;42.664;23.372;2023-05-01T05:49:57;94867.56;;;20.28;47.72
6136;BME280;24008;42.664;23.372;2023-05-01T05:52:23;94866.63;;;20.68;47.05
6136;BME280;24008;42.664;23.372;2023-05-01T05:54:50;94822.47;;;20.68;45.71
6136;BME280;24008;42.664;23.372;2023-05-01T05:57:17;94876.22;;;21.20;45.52
6136;BME280;24008;42.664;23.372;2023-05-01T05:59:43;94877.41;;;21.31;45.14
6136;BME280;24008;42.664;23.372;2023-05-01T06:02:10;94876.00;;;21.29;44.71
6136;BME280;24008;42.664;23.372;2023-05-01T06:04:38;94832.44;;;21.24;44.18
6136;BME280;24008;42.664;23.372;2023-05-01T06:07:05;94832.16;;;21.45;44.06
6136;BME280;24008;42.664;23.372;2023-05-01T06:09:32;94834.38;;;21.48;43.53
6136;BME280;24008;42.664;23.372;2023-05-01T06:11:59;94832.41;;;21.37;44.75
6136;BME280;24008;42.664;23.372;2023-05-01T06:14:26;94829.41;;;21.14;45.66
6136;BME280;24008;42.664;23.372;2023-05-01T06:16:53;94884.44;;;21.24;44.56
6136;BME280;24008;42.664;23.372;2023-05-01T06:19:19;94892.41;;;21.29;44.80
6136;BME280;24008;42.664;23.372;2023-05-01T06:21:47;94883.50;;;21.70;43.97
6136;BME280;24008;42.664;23.372;2023-05-01T06:24:14;94897.81;;;22.43;42.85
6136;BME280;24008;42.664;23.372;2023-05-01T06:26:41;94886.50;;;22.24;43.17
6136;BME280;24008;42.664;23.372;2023-05-01T06:29:08;94880.84;;;22.66;42.45
6136;BME280;24008;42.664;23.372;2023-05-01T06:31:34;94885.22;;;22.40;42.88
6136;BME280;24008;42.664;23.372;2023-05-01T06:34:01;94894.28;;;22.94;41.56
6136;BME280;24008;42.664;23.372;2023-05-01T06:36:28;94886.69;;;23.35;40.47
6136;BME280;24008;42.664;23.372;2023-05-01T06:38:57;94886.25;;;23.39;40.71
6136;BME280;24008;42.664;23.372;2023-05-01T06:41:23;94887.31;;;23.13;41.68
6136;BME280;24008;42.664;23.372;2023-05-01T06:43:51;94879.75;;;23.29;40.88
6136;BME280;24008;42.664;23.372;2023-05-01T06:46:18;94843.47;;;23.03;40.25
6136;BME280;24008;42.664;23.372;2023-05-01T06:48:44;94766.03;;;22.60;40.85
6136;BME280;24008;42.664;23.372;2023-05-01T06:51:11;94868.38;;;22.99;41.10
6136;BME280;24008;42.664;23.372;2023-05-01T06:53:39;94806.13;;;22.84;41.68
6136;BME280;24008;42.664;23.372;2023-05-01T06:56:07;94886.19;;;23.02;40.37
6136;BME280;24008;42.664;23.372;2023-05-01T06:58:34;94871.28;;;22.84;41.63
6136;BME280;24008;42.664;23.372;2023-05-01T07:01:00;94845.38;;;23.14;39.89
6136;BME280;24008;42.664;23.372;2023-05-01T07:03:28;94890.16;;;23.73;38.95
6136;BME280;24008;42.664;23.372;2023-05-01T07:05:54;94877.88;;;23.91;39.88
6136;BME280;24008;42.664;23.372;2023-05-01T07:08:21;94879.19;;;23.82;39.39
6136;BME280;24008;42.664;23.372;2023-05-01T07:10:48;94897.19;;;24.20;38.98
6136;BME280;24008;42.664;23.372;2023-05-01T07:13:16;94894.00;;;24.18;39.32
6136;BME280;24008;42.664;23.372;2023-05-01T07:15:43;94872.56;;;24.46;38.01
6136;BME280;24008;42.664;23.372;2023-05-01T07:18:11;94899.91;;;24.73;38.22
6136;BME280;24008;42.664;23.372;2023-05-01T07:20:37;94821.53;;;24.32;39.21
6136;BME280;24008;42.664;23.372;2023-05-01T07:23:04;94901.06;;;24.89;39.61
6136;BME280;24008;42.664;23.372;2023-05-01T07:25:31;94905.34;;;25.13;37.66
6136;BME280;24008;42.664;23.372;2023-05-01T07:27:58;94853.47;;;24.46;38.44
6136;BME280;24008;42.664;23.372;2023-05-01T07:30:27;94905.91;;;24.32;38.52
6136;BME280;24008;42.664;23.372;2023-05-01T07:32:54;94901.19;;;24.53;38.59
6136;BME280;24008;42.664;23.372;2023-05-01T07:35:21;94827.19;;;24.29;37.92
6136;BME280;24008;42.664;23.372;2023-05-01T07:37:48;94890.66;;;25.12;38.06
6136;BME280;24008;42.664;23.372;2023-05-01T07:40:16;94902.19;;;25.23;37.31
6136;BME280;24008;42.664;23.372;2023-05-01T07:42:43;94870.66;;;25.18;36.64
6136;BME280;24008;42.664;23.372;2023-05-01T07:45:10;94817.47;;;23.88;38.34
6136;BME280;24008;42.664;23.372;2023-05-01T07:47:38;94909.88;;;25.06;36.75
6136;BME280;24008;42.664;23.372;2023-05-01T07:50:09;94830.13;;;24.74;36.94
6136;BME280;24008;42.664;23.372;2023-05-01T07:52:35;94902.84;;;24.77;37.92
6136;BME280;24008;42.664;23.372;2023-05-01T07:55:03;94902.03;;;24.65;37.92
6136;BME280;24008;42.664;23.372;2023-05-01T07:57:29;94898.63;;;25.18;37.92
6136;BME280;24008;42.664;23.372;2023-05-01T07:59:57;94878.28;;;25.20;36.98
6136;BME280;24008;42.664;23.372;2023-05-01T08:02:24;94884.53;;;25.19;36.40
6136;BME280;24008;42.664;23.372;2023-05-01T08:04:52;94878.84;;;24.98;36.30
6136;BME280;24008;42.664;23.372;2023-05-01T08:07:19;94850.13;;;24.92;37.98
6136;BME280;24008;42.664;23.372;2023-05-01T08:09:49;94842.88;;;24.82;36.89
6136;BME280;24008;42.664;23.372;2023-05-01T08:12:15;94877.19;;;24.74;36.12
6136;BME280;24008;42.664;23.372;2023-05-01T08:14:42;94906.47;;;25.18;36.23
6136;BME280;24008;42.664;23.372;2023-05-01T08:17:09;94901.00;;;25.77;35.05
6136;BME280;24008;42.664;23.372;2023-05-01T08:19:35;94902.84;;;25.65;35.88
6136;BME280;24008;42.664;23.372;2023-05-01T08:22:03;94906.72;;;25.74;34.15
6136;BME280;24008;42.664;23.372;2023-05-01T08:24:30;94849.34;;;25.73;33.41
6136;BME280;24008;42.664;23.372;2023-05-01T08:26:57;94912.47;;;26.00;32.87
6136;BME280;24008;42.664;23.372;2023-05-01T08:29:24;94896.44;;;25.84;32.91
6136;BME280;24008;42.664;23.372;2023-05-01T08:31:51;94896.78;;;25.88;34.01
6136;BME280;24008;42.664;23.372;2023-05-01T08:34:17;94892.66;;;26.04;33.65
6136;BME280;24008;42.664;23.372;2023-05-01T08:36:44;94892.00;;;26.25;32.84
6136;BME280;24008;42.664;23.372;2023-05-01T08:39:12;94907.09;;;26.46;32.55
6136;BME280;24008;42.664;23.372;2023-05-01T08:41:39;94899.09;;;26.70;31.86
6136;BME280;24008;42.664;23.372;2023-05-01T08:44:07;94891.19;;;26.36;32.67
6136;BME280;24008;42.664;23.372;2023-05-01T08:46:43;94864.91;;;26.48;31.87
6136;BME280;24008;42.664;23.372;2023-05-01T08:49:14;94892.66;;;26.61;31.76
6136;BME280;24008;42.664;23.372;2023-05-01T08:51:44;94896.88;;;26.33;32.07
6136;BME280;24008;42.664;23.372;2023-05-01T08:54:12;94863.13;;;26.08;33.48
6136;BME280;24008;42.664;23.372;2023-05-01T08:56:41;94888.38;;;26.54;32.11
6136;BME280;24008;42.664;23.372;2023-05-01T08:59:10;94773.72;;;26.33;29.28
6136;BME280;24008;42.664;23.372;2023-05-01T09:01:37;94889.03;;;27.45;28.85
6136;BME280;24008;42.664;23.372;2023-05-01T09:04:05;94880.63;;;26.93;30.61
6136;BME280;24008;42.664;23.372;2023-05-01T09:06:33;94882.63;;;26.41;32.31
6136;BME280;24008;42.664;23.372;2023-05-01T09:09:00;94883.88;;;26.67;30.84
6136;BME280;24008;42.664;23.372;2023-05-01T09:11:29;94884.00;;;26.60;30.73
6136;BME280;24008;42.664;23.372;2023-05-01T09:13:56;94755.94;;;25.50;31.02
6136;BME280;24008;42.664;23.372;2023-05-01T09:16:23;94750.19;;;25.25;32.19
6136;BME280;24008;42.664;23.372;2023-05-01T09:18:49;94701.31;;;24.90;32.07
6136;BME280;24008;42.664;23.372;2023-05-01T09:21:17;94873.13;;;26.51;32.15
6136;BME280;24008;42.664;23.372;2023-05-01T09:23:44;94541.09;;;24.50;32.21
6136;BME280;24008;42.664;23.372;2023-05-01T09:26:11;94819.03;;;26.17;32.05
6136;BME280;24008;42.664;23.372;2023-05-01T09:28:43;94876.31;;;26.87;31.81
6136;BME280;24008;42.664;23.372;2023-05-01T09:31:20;94815.41;;;26.35;33.07
6136;BME280;24008;42.664;23.372;2023-05-01T09:33:52;94887.91;;;27.03;30.41
6136;BME280;24008;42.664;23.372;2023-05-01T09:36:22;94855.97;;;26.61;31.44
6136;BME280;24008;42.664;23.372;2023-05-01T09:38:50;94848.69;;;26.79;31.62
6136;BME280;24008;42.664;23.372;2023-05-01T09:41:17;94878.06;;;26.65;32.59
6136;BME280;24008;42.664;23.372;2023-05-01T09:43:50;94883.03;;;26.09;32.54
6136;BME280;24008;42.664;23.372;2023-05-01T09:46:17;94802.50;;;24.66;33.75
6136;BME280;24008;42.664;23.372;2023-05-01T09:48:55;94859.03;;;24.19;35.36
6136;BME280;24008;42.664;23.372;2023-05-01T09:51:38;94879.97;;;25.02;35.04
6136;BME280;24008;42.664;23.372;2023-05-01T09:54:16;94874.97;;;25.59;33.76
6136;BME280;24008;42.664;23.372;2023-05-01T09:56:46;94870.47;;;25.95;33.68
6136;BME280;24008;42.664;23.372;2023-05-01T09:59:19;94863.34;;;25.78;33.36
6136;BME280;24008;42.664;23.372;2023-05-01T10:01:46;94870.78;;;25.98;32.32
6136;BME280;24008;42.664;23.372;2023-05-01T10:04:14;94844.88;;;26.13;31.78
6136;BME280;24008;42.664;23.372;2023-05-01T10:06:41;94860.69;;;26.92;31.34
6136;BME280;24008;42.664;23.372;2023-05-01T10:09:08;94862.41;;;27.37;29.92
6136;BME280;24008;42.664;23.372;2023-05-01T10:11:48;94839.53;;;27.15;29.53
6136;BME280;24008;42.664;23.372;2023-05-01T10:14:17;94865.34;;;26.73;30.56
6136;BME280;24008;42.664;23.372;2023-05-01T10:16:45;94832.59;;;26.42;30.84
6136;BME280;24008;42.664;23.372;2023-05-01T10:19:14;94864.00;;;26.71;30.24
6136;BME280;24008;42.664;23.372;2023-05-01T10:21:42;94838.31;;;26.39;30.52
6136;BME280;24008;42.664;23.372;2023-05-01T10:24:09;94665.69;;;25.81;29.52
6136;BME280;24008;42.664;23.372;2023-05-01T10:26:36;94780.59;;;26.68;28.90
6136;BME280;24008;42.664;23.372;2023-05-01T10:29:03;94852.34;;;27.12;28.92
6136;BME280;24008;42.664;23.372;2023-05-01T10:31:31;94856.88;;;27.00;28.32
6136;BME280;24008;42.664;23.372;2023-05-01T10:33:59;94827.19;;;26.82;28.83
6136;BME280;24008;42.664;23.372;2023-05-01T10:36:31;94848.97;;;26.66;29.35
6136;BME280;24008;42.664;23.372;2023-05-01T10:38:59;94769.53;;;26.32;30.63
6136;BME280;24008;42.664;23.372;2023-05-01T10:44:39;94849.41;;;27.47;27.99
6136;BME280;24008;42.664;23.372;2023-05-01T10:47:44;94850.31;;;26.69;28.88
6136;BME280;24008;42.664;23.372;2023-05-01T10:50:11;94855.31;;;26.25;28.84
6136;BME280;24008;42.664;23.372;2023-05-01T10:53:16;94844.59;;;25.98;30.18
6136;BME280;24008;42.664;23.372;2023-05-01T10:55:44;94843.03;;;25.10;32.17
6136;BME280;24008;42.664;23.372;2023-05-01T10:58:12;94809.81;;;23.56;34.48
6136;BME280;24008;42.664;23.372;2023-05-01T11:00:39;94853.22;;;22.89;35.78
6136;BME280;24008;42.664;23.372;2023-05-01T11:03:34;94853.06;;;22.53;36.70
6136;BME280;24008;42.664;23.372;2023-05-01T11:06:05;94851.59;;;22.32;36.93
6136;BME280;24008;42.664;23.372;2023-05-01T11:08:33;94851.88;;;22.17;36.45
6136;BME280;24008;42.664;23.372;2023-05-01T11:11:48;94855.06;;;21.75;37.58
6136;BME280;24008;42.664;23.372;2023-05-01T11:14:15;94786.25;;;21.64;37.81
6136;BME280;24008;42.664;23.372;2023-05-01T11:16:44;94824.00;;;22.24;37.43
6136;BME280;24008;42.664;23.372;2023-05-01T11:19:46;94852.75;;;22.43;36.08
6136;BME280;24008;42.664;23.372;2023-05-01T11:22:16;94849.81;;;22.33;36.11
6136;BME280;24008;42.664;23.372;2023-05-01T11:24:44;94754.69;;;21.92;36.07
6136;BME280;24008;42.664;23.372;2023-05-01T11:27:13;94790.75;;;21.88;35.95
6136;BME280;24008;42.664;23.372;2023-05-01T11:29:45;94825.75;;;21.99;36.60
6136;BME280;24008;42.664;23.372;2023-05-01T11:32:23;94804.56;;;21.89;36.66
6136;BME280;24008;42.664;23.372;2023-05-01T11:34:53;94819.59;;;22.25;36.06
6136;BME280;24008;42.664;23.372;2023-05-01T11:37:20;94860.28;;;22.51;35.77
6136;BME280;24008;42.664;23.372;2023-05-01T11:40:10;94831.59;;;21.88;35.92
6136;BME280;24008;42.664;23.372;2023-05-01T11:42:43;94866.19;;;21.04;37.49
6136;BME280;24008;42.664;23.372;2023-05-01T11:45:11;94866.81;;;20.80;38.19
6136;BME280;24008;42.664;23.372;2023-05-01T11:47:38;94863.25;;;20.88;38.49
6136;BME280;24008;42.664;23.372;2023-05-01T11:50:08;94659.88;;;19.49;38.27
6136;BME280;24008;42.664;23.372;2023-05-01T11:52:42;94851.63;;;20.90;38.58
6136;BME280;24008;42.664;23.372;2023-05-01T11:55:10;94857.63;;;20.91;38.39
6136;BME280;24008;42.664;23.372;2023-05-01T11:57:47;94872.00;;;20.80;37.64
6136;BME280;24008;42.664;23.372;2023-05-01T12:00:15;94853.56;;;20.29;38.27
6136;BME280;24008;42.664;23.372;2023-05-01T12:02:54;94867.56;;;20.34;38.51
6136;BME280;24008;42.664;23.372;2023-05-01T12:05:24;94865.34;;;20.25;37.99
6136;BME280;24008;42.664;23.372;2023-05-01T12:08:05;94798.34;;;19.74;37.41
6136;BME280;24008;42.664;23.372;2023-05-01T12:10:32;94835.19;;;20.24;37.25
6136;BME280;24008;42.664;23.372;2023-05-01T12:13:00;94877.19;;;20.47;36.59
6136;BME280;24008;42.664;23.372;2023-05-01T12:15:27;94882.38;;;20.47;37.07
6136;BME280;24008;42.664;23.372;2023-05-01T12:17:55;94862.72;;;20.18;37.49
6136;BME280;24008;42.664;23.372;2023-05-01T12:20:34;94892.44;;;20.02;37.54
6136;BME280;24008;42.664;23.372;2023-05-01T12:23:02;94888.56;;;19.85;36.91
6136;BME280;24008;42.664;23.372;2023-05-01T12:25:30;94883.75;;;19.75;36.45
6136;BME280;24008;42.664;23.372;2023-05-01T12:27:59;94793.25;;;19.05;37.30
6136;BME280;24008;42.664;23.372;2023-05-01T12:30:26;94784.88;;;19.03;37.24
6136;BME280;24008;42.664;23.372;2023-05-01T12:32:54;94887.63;;;19.52;37.72
6136;BME280;24008;42.664;23.372;2023-05-01T12:35:27;94883.38;;;19.44;37.42
6136;BME280;24008;42.664;23.372;2023-05-01T12:37:56;94868.50;;;19.25;37.39
6136;BME280;24008;42.664;23.372;2023-05-01T12:40:24;94887.09;;;19.35;40.50
6136;BME280;24008;42.664;23.372;2023-05-01T12:42:55;94840.72;;;19.12;42.31
6136;BME280;24008;42.664;23.372;2023-05-01T12:45:23;94867.59;;;19.39;42.18
6136;BME280;24008;42.664;23.372;2023-05-01T12:47:50;94836.84;;;19.29;42.32
6136;BME280;24008;42.664;23.372;2023-05-01T12:50:18;94619.75;;;18.02;42.09
6136;BME280;24008;42.664;23.372;2023-05-01T12:52:46;94884.75;;;19.40;42.28
6136;BME280;24008;42.664;23.372;2023-05-01T12:55:14;94880.56;;;19.11;41.83
6136;BME280;24008;42.664;23.372;2023-05-01T12:57:51;94793.25;;;18.49;40.99
6136;BME280;24008;42.664;23.372;2023-05-01T13:00:19;94871.34;;;19.02;40.83
6136;BME280;24008;42.664;23.372;2023-05-01T13:02:47;94877.84;;;19.19;40.44
6136;BME280;24008;42.664;23.372;2023-05-01T13:05:14;94879.06;;;19.23;39.66
6136;BME280;24008;42.664;23.372;2023-05-01T13:07:47;94838.81;;;18.93;40.79
6136;BME280;24008;42.664;23.372;2023-05-01T13:10:28;94841.00;;;18.96;41.34
6136;BME280;24008;42.664;23.372;2023-05-01T13:12:56;94847.47;;;19.06;43.03
6136;BME280;24008;42.664;23.372;2023-05-01T13:15:23;94795.84;;;18.70;44.37
6136;BME280;24008;42.664;23.372;2023-05-01T13:17:50;94881.25;;;18.92;43.87